Time,TemperatureF,DewpointF,PressureIn,WindDirection,WindDirectionDegrees,WindSpeedMPH,WindSpeedGustMPH,Humidity,HourlyPrecipIn,Conditions,Clouds,dailyrainin,SoftwareType,DateUTC
2013-12-21 00:00:00,19.0,-99.9,-100.00,SSW,212,5.0,12.0,-999,-99.99,,,-99.99,,2013-12-21 07:00:00,
2013-12-21 00:42:00,19.0,-99.9,-100.00,SSW,212,5.0,12.0,-999,-99.99,,,-99.99,,2013-12-21 07:42:00,
2013-12-21 00:53:00,19.0,-99.9,-100.00,SSW,212,5.0,12.0,-999,-99.99,,,-99.99,,2013-12-21 07:53:00,
2013-12-21 01:00:00,19.0,-99.9,-100.00,SW,220,15.0,16.0,-999,-99.99,,,-99.99,,2013-12-21 08:00:00,
2013-12-21 01:42:00,19.0,-99.9,-100.00,SW,220,15.0,16.0,-999,-99.99,,,-99.99,,2013-12-21 08:42:00,
2013-12-21 01:53:00,19.0,-99.9,-100.00,SW,220,15.0,16.0,-999,-99.99,,,-99.99,,2013-12-21 08:53:00,
2013-12-21 02:00:00,17.0,-99.9,-100.00,South,183,10.0,13.0,-999,-99.99,,,-99.99,,2013-12-21 09:00:00,
2013-12-21 02:43:00,17.0,-99.9,-100.00,South,183,10.0,13.0,-999,-99.99,,,-99.99,,2013-12-21 09:43:00,
2013-12-21 02:54:00,17.0,-99.9,-100.00,South,183,10.0,13.0,-999,-99.99,,,-99.99,,2013-12-21 09:54:00,
2013-12-21 03:00:00,19.0,-99.9,-100.00,SSW,200,14.0,18.0,-999,-99.99,,,-99.99,,2013-12-21 10:00:00,
2013-12-21 03:43:00,19.0,-99.9,-100.00,SSW,200,14.0,18.0,-999,-99.99,,,-99.99,,2013-12-21 10:43:00,
2013-12-21 03:53:00,19.0,-99.9,-100.00,SSW,200,14.0,18.0,-999,-99.99,,,-99.99,,2013-12-21 10:53:00,
2013-12-21 04:00:00,21.0,-99.9,-100.00,South,179,12.0,14.0,-999,-99.99,,,-99.99,,2013-12-21 11:00:00,
2013-12-21 04:53:00,21.0,-99.9,-100.00,South,179,12.0,14.0,-999,-99.99,,,-99.99,,2013-12-21 11:53:00,
2013-12-21 05:00:00,21.0,-99.9,-100.00,SSW,206,13.0,19.0,-999,-99.99,,,-99.99,,2013-12-21 12:00:00,
2013-12-21 05:42:00,21.0,-99.9,-100.00,SSW,206,13.0,19.0,-999,-99.99,,,-99.99,,2013-12-21 12:42:00,
2013-12-21 05:52:00,21.0,-99.9,-100.00,SSW,206,13.0,19.0,-999,-99.99,,,-99.99,,2013-12-21 12:52:00,
2013-12-21 06:00:00,22.0,-99.9,-100.00,SSW,196,10.0,13.0,-999,-99.99,,,-99.99,,2013-12-21 13:00:00,
2013-12-21 06:42:00,22.0,-99.9,-100.00,SSW,196,10.0,13.0,-999,-99.99,,,-99.99,,2013-12-21 13:42:00,
2013-12-21 06:52:00,22.0,-99.9,-100.00,SSW,196,10.0,13.0,-999,-99.99,,,-99.99,,2013-12-21 13:52:00,
2013-12-21 07:00:00,23.0,-99.9,-100.00,NW,308,6.0,11.0,-999,-99.99,,,-99.99,,2013-12-21 14:00:00,
2013-12-21 07:42:00,23.0,-99.9,-100.00,NW,308,6.0,11.0,-999,-99.99,,,-99.99,,2013-12-21 14:42:00,
2013-12-21 07:53:00,23.0,-99.9,-100.00,NW,308,6.0,11.0,-999,-99.99,,,-99.99,,2013-12-21 14:53:00,
2013-12-21 08:00:00,22.0,-99.9,-100.00,NNW,347,3.0,10.0,-999,-99.99,,,-99.99,,2013-12-21 15:00:00,
2013-12-21 08:44:00,22.0,-99.9,-100.00,NNW,347,3.0,10.0,-999,-99.99,,,-99.99,,2013-12-21 15:44:00,
2013-12-21 08:53:00,22.0,-99.9,-100.00,NNW,347,3.0,10.0,-999,-99.99,,,-99.99,,2013-12-21 15:53:00,
2013-12-21 09:00:00,21.0,-99.9,-100.00,NW,316,6.0,7.0,-999,-99.99,,,-99.99,,2013-12-21 16:00:00,
2013-12-21 09:43:00,21.0,-99.9,-100.00,NW,316,6.0,7.0,-999,-99.99,,,-99.99,,2013-12-21 16:43:00,
2013-12-21 09:53:00,21.0,-99.9,-100.00,NW,316,6.0,7.0,-999,-99.99,,,-99.99,,2013-12-21 16:53:00,
2013-12-21 10:00:00,22.0,-99.9,-100.00,NW,314,18.0,21.0,-999,-99.99,,,-99.99,,2013-12-21 17:00:00,
2013-12-21 10:43:00,22.0,-99.9,-100.00,NW,314,18.0,21.0,-999,-99.99,,,-99.99,,2013-12-21 17:43:00,
2013-12-21 10:53:00,22.0,-99.9,-100.00,NW,314,18.0,21.0,-999,-99.99,,,-99.99,,2013-12-21 17:53:00,
2013-12-21 11:00:00,24.0,-99.9,-100.00,WNW,296,24.0,26.0,-999,-99.99,,,-99.99,,2013-12-21 18:00:00,
2013-12-21 11:42:00,24.0,-99.9,-100.00,WNW,296,24.0,26.0,-999,-99.99,,,-99.99,,2013-12-21 18:42:00,
2013-12-21 11:52:00,24.0,-99.9,-100.00,WNW,296,24.0,26.0,-999,-99.99,,,-99.99,,2013-12-21 18:52:00,
2013-12-21 12:00:00,24.0,-99.9,-100.00,WNW,293,28.0,30.0,-999,-99.99,,,-99.99,,2013-12-21 19:00:00,
2013-12-21 12:42:00,24.0,-99.9,-100.00,WNW,293,28.0,30.0,-999,-99.99,,,-99.99,,2013-12-21 19:42:00,
2013-12-21 12:52:00,24.0,-99.9,-100.00,WNW,293,28.0,30.0,-999,-99.99,,,-99.99,,2013-12-21 19:52:00,
2013-12-21 13:00:00,22.0,-99.9,-100.00,NW,321,25.0,28.0,-999,-99.99,,,-99.99,,2013-12-21 20:00:00,
2013-12-21 13:42:00,22.0,-99.9,-100.00,NW,321,25.0,28.0,-999,-99.99,,,-99.99,,2013-12-21 20:42:00,
2013-12-21 13:53:00,22.0,-99.9,-100.00,NW,321,25.0,28.0,-999,-99.99,,,-99.99,,2013-12-21 20:53:00,
2013-12-21 14:00:00,23.0,-99.9,-100.00,NW,310,20.0,28.0,-999,-99.99,,,-99.99,,2013-12-21 21:00:00,
2013-12-21 14:44:00,23.0,-99.9,-100.00,NW,310,20.0,28.0,-999,-99.99,,,-99.99,,2013-12-21 21:44:00,
2013-12-21 14:53:00,23.0,-99.9,-100.00,NW,310,20.0,28.0,-999,-99.99,,,-99.99,,2013-12-21 21:53:00,
2013-12-21 15:00:00,22.0,-99.9,-100.00,WNW,294,19.0,28.0,-999,-99.99,,,-99.99,,2013-12-21 22:00:00,
2013-12-21 15:43:00,22.0,-99.9,-100.00,WNW,294,19.0,28.0,-999,-99.99,,,-99.99,,2013-12-21 22:43:00,
2013-12-21 15:53:00,22.0,-99.9,-100.00,WNW,294,19.0,28.0,-999,-99.99,,,-99.99,,2013-12-21 22:53:00,
2013-12-21 16:00:00,21.0,-99.9,-100.00,WNW,301,14.0,18.0,-999,-99.99,,,-99.99,,2013-12-21 23:00:00,
2013-12-21 16:43:00,21.0,-99.9,-100.00,WNW,301,14.0,18.0,-999,-99.99,,,-99.99,,2013-12-21 23:43:00,
2013-12-21 16:53:00,21.0,-99.9,-100.00,WNW,301,14.0,18.0,-999,-99.99,,,-99.99,,2013-12-21 23:53:00,
2013-12-21 17:00:00,18.0,-99.9,-100.00,NNW,334,9.0,12.0,-999,-99.99,,,-99.99,,2013-12-22 00:00:00,
2013-12-21 17:42:00,18.0,-99.9,-100.00,NNW,334,9.0,12.0,-999,-99.99,,,-99.99,,2013-12-22 00:42:00,
2013-12-21 17:52:00,18.0,-99.9,-100.00,NNW,334,9.0,12.0,-999,-99.99,,,-99.99,,2013-12-22 00:52:00,
2013-12-21 18:00:00,18.0,-99.9,-100.00,North,352,6.0,10.0,-999,-99.99,,,-99.99,,2013-12-22 01:00:00,
2013-12-21 18:42:00,18.0,-99.9,-100.00,North,352,6.0,10.0,-999,-99.99,,,-99.99,,2013-12-22 01:42:00,
2013-12-21 18:52:00,18.0,-99.9,-100.00,North,352,6.0,10.0,-999,-99.99,,,-99.99,,2013-12-22 01:52:00,
2013-12-21 19:00:00,18.0,-99.9,-100.00,NW,314,12.0,13.0,-999,-99.99,,,-99.99,,2013-12-22 02:00:00,
2013-12-21 19:42:00,18.0,-99.9,-100.00,NW,314,12.0,13.0,-999,-99.99,,,-99.99,,2013-12-22 02:42:00,
2013-12-21 19:52:00,18.0,-99.9,-100.00,NW,314,12.0,13.0,-999,-99.99,,,-99.99,,2013-12-22 02:52:00,
2013-12-21 20:00:00,-999.0,-99.9,-100.00,NNE,20,4.0,6.0,-999,-99.99,,,-99.99,,2013-12-22 03:00:00,
2013-12-21 20:43:00,18.0,-99.9,-100.00,NNE,20,4.0,6.0,-999,-99.99,,,-99.99,,2013-12-22 03:43:00,
2013-12-21 20:54:00,18.0,-99.9,-100.00,NNE,20,4.0,6.0,-999,-99.99,,,-99.99,,2013-12-22 03:54:00,
2013-12-21 21:00:00,19.0,-99.9,-100.00,NNW,347,4.0,6.0,-999,-99.99,,,-99.99,,2013-12-22 04:00:00,
2013-12-21 21:43:00,19.0,-99.9,-100.00,NNW,347,4.0,6.0,-999,-99.99,,,-99.99,,2013-12-22 04:43:00,
2013-12-21 21:53:00,19.0,-99.9,-100.00,NNW,347,4.0,6.0,-999,-99.99,,,-99.99,,2013-12-22 04:53:00,
2013-12-21 22:00:00,18.0,-99.9,-100.00,NW,320,5.0,9.0,-999,-99.99,,,-99.99,,2013-12-22 05:00:00,
2013-12-21 22:43:00,18.0,-99.9,-100.00,NW,320,5.0,9.0,-999,-99.99,,,-99.99,,2013-12-22 05:43:00,
2013-12-21 22:53:00,18.0,-99.9,-100.00,NW,320,5.0,9.0,-999,-99.99,,,-99.99,,2013-12-22 05:53:00,
2013-12-21 23:00:00,18.0,-99.9,-100.00,WNW,290,10.0,17.0,-999,-99.99,,,-99.99,,2013-12-22 06:00:00,
2013-12-21 23:42:00,18.0,-99.9,-100.00,WNW,290,10.0,17.0,-999,-99.99,,,-99.99,,2013-12-22 06:42:00,
2013-12-21 23:52:00,18.0,-99.9,-100.00,WNW,290,10.0,17.0,-999,-99.99,,,-99.99,,2013-12-22 06:52:00,